sensor_id;sensor_type;location;lat;lon;timestamp;P1;durP1;ratioP1;P2;durP2;ratioP2
22201;SDS011;11266;51.522;6.302;2023-02-26T00:00:15;3.05;;;1.40;;
22201;SDS011;11266;51.522;6.302;2023-02-26T00:01:12;3.33;;;1.15;;
22201;SDS011;11266;51.522;6.302;2023-02-26T00:01:58;5.80;;;1.63;;
22201;SDS011;11266;51.522;6.302;2023-02-26T00:02:46;5.53;;;1.55;;
22201;SDS011;11266;51.522;6.302;2023-02-26T00:03:34;6.18;;;1.63;;
22201;SDS011;11266;51.522;6.302;2023-02-26T00:04:20;4.47;;;1.42;;
22201;SDS011;11266;51.522;6.302;2023-02-26T00:05:06;7.50;;;1.73;;
22201;SDS011;11266;51.522;6.302;2023-02-26T00:05:52;8.07;;;1.95;;
22201;SDS011;11266;51.522;6.302;2023-02-26T00:06:39;2.20;;;1.35;;
22201;SDS011;11266;51.522;6.302;2023-02-26T00:07:37;5.85;;;1.80;;
22201;SDS011;11266;51.522;6.302;2023-02-26T00:08:23;6.32;;;1.73;;
22201;SDS011;11266;51.522;6.302;2023-02-26T00:09:08;4.80;;;1.52;;
22201;SDS011;11266;51.522;6.302;2023-02-26T00:09:54;4.50;;;1.25;;
22201;SDS011;11266;51.522;6.302;2023-02-26T00:10:42;4.70;;;1.60;;
22201;SDS011;11266;51.522;6.302;2023-02-26T00:11:28;6.88;;;1.67;;
22201;SDS011;11266;51.522;6.302;2023-02-26T00:12:14;3.00;;;1.25;;
22201;SDS011;11266;51.522;6.302;2023-02-26T00:13:00;4.75;;;1.77;;
22201;SDS011;11266;51.522;6.302;2023-02-26T00:13:46;4.68;;;1.48;;
22201;SDS011;11266;51.522;6.302;2023-02-26T00:14:31;3.78;;;1.15;;
22201;SDS011;11266;51.522;6.302;2023-02-26T00:15:17;4.18;;;1.42;;
22201;SDS011;11266;51.522;6.302;2023-02-26T00:16:08;4.82;;;1.45;;
22201;SDS011;11266;51.522;6.302;2023-02-26T00:17:24;6.00;;;1.20;;
22201;SDS011;11266;51.522;6.302;2023-02-26T00:18:29;5.68;;;1.73;;
22201;SDS011;11266;51.522;6.302;2023-02-26T00:19:15;4.28;;;1.15;;
22201;SDS011;11266;51.522;6.302;2023-02-26T00:20:01;3.65;;;1.42;;
22201;SDS011;11266;51.522;6.302;2023-02-26T00:20:49;5.65;;;1.30;;
22201;SDS011;11266;51.522;6.302;2023-02-26T00:21:34;3.78;;;1.92;;
22201;SDS011;11266;51.522;6.302;2023-02-26T00:22:21;2.88;;;1.20;;
22201;SDS011;11266;51.522;6.302;2023-02-26T00:23:09;4.68;;;1.77;;
22201;SDS011;11266;51.522;6.302;2023-02-26T00:23:58;6.38;;;1.40;;
22201;SDS011;11266;51.522;6.302;2023-02-26T00:24:46;2.80;;;1.40;;
22201;SDS011;11266;51.522;6.302;2023-02-26T00:25:31;6.80;;;2.08;;
22201;SDS011;11266;51.522;6.302;2023-02-26T00:26:17;4.00;;;1.33;;
22201;SDS011;11266;51.522;6.302;2023-02-26T00:27:02;6.28;;;1.50;;
22201;SDS011;11266;51.522;6.302;2023-02-26T00:27:50;6.00;;;1.63;;
22201;SDS011;11266;51.522;6.302;2023-02-26T00:28:36;2.25;;;1.08;;
22201;SDS011;11266;51.522;6.302;2023-02-26T00:29:25;7.97;;;1.50;;
22201;SDS011;11266;51.522;6.302;2023-02-26T00:30:11;5.85;;;1.48;;
22201;SDS011;11266;51.522;6.302;2023-02-26T00:30:57;7.50;;;1.42;;
22201;SDS011;11266;51.522;6.302;2023-02-26T00:31:43;7.82;;;1.48;;
22201;SDS011;11266;51.522;6.302;2023-02-26T00:32:29;4.78;;;1.65;;
22201;SDS011;11266;51.522;6.302;2023-02-26T00:33:15;4.45;;;1.63;;
22201;SDS011;11266;51.522;6.302;2023-02-26T00:34:00;1.55;;;0.80;;
22201;SDS011;11266;51.522;6.302;2023-02-26T00:34:47;4.95;;;1.25;;
22201;SDS011;11266;51.522;6.302;2023-02-26T00:35:33;3.85;;;1.55;;
22201;SDS011;11266;51.522;6.302;2023-02-26T00:36:21;8.38;;;1.60;;
22201;SDS011;11266;51.522;6.302;2023-02-26T00:37:16;4.82;;;1.45;;
22201;SDS011;11266;51.522;6.302;2023-02-26T00:38:08;4.72;;;1.33;;
22201;SDS011;11266;51.522;6.302;2023-02-26T00:39:38;2.65;;;1.13;;
22201;SDS011;11266;51.522;6.302;2023-02-26T00:41:14;6.15;;;2.25;;
22201;SDS011;11266;51.522;6.302;2023-02-26T00:42:03;5.15;;;1.58;;
22201;SDS011;11266;51.522;6.302;2023-02-26T00:42:49;2.78;;;1.42;;
22201;SDS011;11266;51.522;6.302;2023-02-26T00:43:34;5.55;;;1.90;;
22201;SDS011;11266;51.522;6.302;2023-02-26T00:44:20;4.25;;;1.52;;
22201;SDS011;11266;51.522;6.302;2023-02-26T00:45:06;3.97;;;1.40;;
22201;SDS011;11266;51.522;6.302;2023-02-26T00:51:13;8.85;;;2.90;;
22201;SDS011;11266;51.522;6.302;2023-02-26T00:52:14;6.65;;;2.35;;
22201;SDS011;11266;51.522;6.302;2023-02-26T00:53:21;7.65;;;2.58;;
22201;SDS011;11266;51.522;6.302;2023-02-26T00:55:11;7.55;;;2.30;;
22201;SDS011;11266;51.522;6.302;2023-02-26T00:55:57;5.53;;;1.75;;
22201;SDS011;11266;51.522;6.302;2023-02-26T00:56:45;4.55;;;2.00;;
22201;SDS011;11266;51.522;6.302;2023-02-26T00:57:30;4.90;;;2.08;;
22201;SDS011;11266;51.522;6.302;2023-02-26T00:58:18;8.15;;;2.13;;
22201;SDS011;11266;51.522;6.302;2023-02-26T00:59:06;7.55;;;2.67;;
22201;SDS011;11266;51.522;6.302;2023-02-26T00:59:51;7.38;;;2.60;;
22201;SDS011;11266;51.522;6.302;2023-02-26T01:00:37;10.48;;;2.78;;
22201;SDS011;11266;51.522;6.302;2023-02-26T01:01:23;10.02;;;2.60;;
22201;SDS011;11266;51.522;6.302;2023-02-26T01:02:11;9.20;;;3.03;;
22201;SDS011;11266;51.522;6.302;2023-02-26T01:02:56;7.57;;;2.47;;
22201;SDS011;11266;51.522;6.302;2023-02-26T01:03:42;7.15;;;3.13;;
22201;SDS011;11266;51.522;6.302;2023-02-26T01:04:29;7.38;;;2.97;;
22201;SDS011;11266;51.522;6.302;2023-02-26T01:05:15;4.38;;;2.35;;
22201;SDS011;11266;51.522;6.302;2023-02-26T01:06:03;4.82;;;1.80;;
22201;SDS011;11266;51.522;6.302;2023-02-26T01:06:55;6.10;;;2.58;;
22201;SDS011;11266;51.522;6.302;2023-02-26T01:10:10;4.65;;;2.08;;
22201;SDS011;11266;51.522;6.302;2023-02-26T01:10:56;7.10;;;2.55;;
22201;SDS011;11266;51.522;6.302;2023-02-26T01:11:42;3.72;;;1.60;;
22201;SDS011;11266;51.522;6.302;2023-02-26T01:12:28;6.25;;;1.80;;
22201;SDS011;11266;51.522;6.302;2023-02-26T01:13:14;4.68;;;1.67;;
22201;SDS011;11266;51.522;6.302;2023-02-26T01:14:00;4.13;;;1.75;;
22201;SDS011;11266;51.522;6.302;2023-02-26T01:14:47;4.10;;;1.42;;
22201;SDS011;11266;51.522;6.302;2023-02-26T01:15:34;4.00;;;1.48;;
22201;SDS011;11266;51.522;6.302;2023-02-26T01:16:20;3.35;;;1.50;;
22201;SDS011;11266;51.522;6.302;2023-02-26T01:17:15;7.35;;;1.80;;
22201;SDS011;11266;51.522;6.302;2023-02-26T01:18:13;7.32;;;2.15;;
22201;SDS011;11266;51.522;6.302;2023-02-26T01:19:08;4.13;;;1.52;;
22201;SDS011;11266;51.522;6.302;2023-02-26T01:20:20;5.65;;;1.42;;
22201;SDS011;11266;51.522;6.302;2023-02-26T01:21:14;4.65;;;1.90;;
22201;SDS011;11266;51.522;6.302;2023-02-26T01:22:22;5.45;;;1.42;;
22201;SDS011;11266;51.522;6.302;2023-02-26T01:23:22;4.03;;;1.65;;
22201;SDS011;11266;51.522;6.302;2023-02-26T01:24:11;10.20;;;1.83;;
22201;SDS011;11266;51.522;6.302;2023-02-26T01:25:07;5.55;;;1.50;;
22201;SDS011;11266;51.522;6.302;2023-02-26T01:25:59;3.50;;;1.50;;
22201;SDS011;11266;51.522;6.302;2023-02-26T01:26:52;4.30;;;1.40;;
22201;SDS011;11266;51.522;6.302;2023-02-26T01:27:38;4.53;;;1.67;;
22201;SDS011;11266;51.522;6.302;2023-02-26T01:28:25;5.95;;;2.55;;
22201;SDS011;11266;51.522;6.302;2023-02-26T01:29:14;6.38;;;2.00;;
22201;SDS011;11266;51.522;6.302;2023-02-26T01:30:00;5.07;;;1.75;;
22201;SDS011;11266;51.522;6.302;2023-02-26T01:30:47;3.00;;;1.52;;
22201;SDS011;11266;51.522;6.302;2023-02-26T01:33:39;7.72;;;2.00;;
22201;SDS011;11266;51.522;6.302;2023-02-26T01:34:38;6.93;;;1.75;;
22201;SDS011;11266;51.522;6.302;2023-02-26T01:36:30;4.38;;;1.92;;
22201;SDS011;11266;51.522;6.302;2023-02-26T01:37:24;7.45;;;1.73;;
22201;SDS011;11266;51.522;6.302;2023-02-26T01:38:36;2.08;;;1.13;;
22201;SDS011;11266;51.522;6.302;2023-02-26T01:42:36;5.38;;;2.05;;
22201;SDS011;11266;51.522;6.302;2023-02-26T01:43:26;4.10;;;1.98;;
22201;SDS011;11266;51.522;6.302;2023-02-26T01:45:31;7.18;;;1.98;;
22201;SDS011;11266;51.522;6.302;2023-02-26T01:47:50;2.47;;;1.55;;
22201;SDS011;11266;51.522;6.302;2023-02-26T01:48:50;2.80;;;1.77;;
22201;SDS011;11266;51.522;6.302;2023-02-26T01:49:40;5.63;;;1.73;;
22201;SDS011;11266;51.522;6.302;2023-02-26T01:50:29;5.50;;;1.52;;
22201;SDS011;11266;51.522;6.302;2023-02-26T01:51:36;4.90;;;1.40;;
22201;SDS011;11266;51.522;6.302;2023-02-26T01:53:32;3.05;;;1.90;;
22201;SDS011;11266;51.522;6.302;2023-02-26T01:54:23;4.03;;;1.45;;
22201;SDS011;11266;51.522;6.302;2023-02-26T01:55:16;3.83;;;1.60;;
22201;SDS011;11266;51.522;6.302;2023-02-26T01:56:17;3.75;;;1.42;;
22201;SDS011;11266;51.522;6.302;2023-02-26T01:57:53;2.60;;;1.10;;
22201;SDS011;11266;51.522;6.302;2023-02-26T01:58:40;6.93;;;1.50;;
22201;SDS011;11266;51.522;6.302;2023-02-26T01:59:28;5.18;;;1.40;;
22201;SDS011;11266;51.522;6.302;2023-02-26T02:00:14;5.53;;;1.75;;
22201;SDS011;11266;51.522;6.302;2023-02-26T02:01:03;3.72;;;1.20;;
22201;SDS011;11266;51.522;6.302;2023-02-26T02:01:53;5.78;;;1.77;;
22201;SDS011;11266;51.522;6.302;2023-02-26T02:02:40;3.97;;;1.40;;
22201;SDS011;11266;51.522;6.302;2023-02-26T02:03:27;6.97;;;1.70;;
22201;SDS011;11266;51.522;6.302;2023-02-26T02:04:15;3.85;;;1.40;;
22201;SDS011;11266;51.522;6.302;2023-02-26T02:05:03;5.07;;;1.63;;
22201;SDS011;11266;51.522;6.302;2023-02-26T02:05:54;3.72;;;1.40;;
22201;SDS011;11266;51.522;6.302;2023-02-26T02:06:44;5.63;;;1.63;;
22201;SDS011;11266;51.522;6.302;2023-02-26T02:07:31;3.97;;;1.45;;
22201;SDS011;11266;51.522;6.302;2023-02-26T02:08:17;3.30;;;1.50;;
22201;SDS011;11266;51.522;6.302;2023-02-26T02:09:04;11.38;;;1.88;;
22201;SDS011;11266;51.522;6.302;2023-02-26T02:09:51;4.38;;;1.35;;
22201;SDS011;11266;51.522;6.302;2023-02-26T02:10:39;4.50;;;1.48;;
22201;SDS011;11266;51.522;6.302;2023-02-26T02:11:27;2.13;;;1.13;;
22201;SDS011;11266;51.522;6.302;2023-02-26T02:15:11;5.35;;;1.60;;
22201;SDS011;11266;51.522;6.302;2023-02-26T02:16:18;5.25;;;1.38;;
22201;SDS011;11266;51.522;6.302;2023-02-26T02:17:13;6.03;;;2.20;;
22201;SDS011;11266;51.522;6.302;2023-02-26T02:20:44;5.97;;;1.50;;
22201;SDS011;11266;51.522;6.302;2023-02-26T02:23:52;2.90;;;1.45;;
22201;SDS011;11266;51.522;6.302;2023-02-26T02:27:17;8.15;;;1.77;;
22201;SDS011;11266;51.522;6.302;2023-02-26T02:31:47;6.63;;;1.67;;
22201;SDS011;11266;51.522;6.302;2023-02-26T02:35:36;4.60;;;1.40;;
22201;SDS011;11266;51.522;6.302;2023-02-26T02:36:30;4.20;;;1.23;;
22201;SDS011;11266;51.522;6.302;2023-02-26T02:37:33;3.40;;;1.50;;
22201;SDS011;11266;51.522;6.302;2023-02-26T02:38:54;3.83;;;0.90;;
22201;SDS011;11266;51.522;6.302;2023-02-26T02:39:45;4.03;;;1.50;;
22201;SDS011;11266;51.522;6.302;2023-02-26T02:40:51;3.13;;;1.00;;
22201;SDS011;11266;51.522;6.302;2023-02-26T02:41:49;4.28;;;1.20;;
22201;SDS011;11266;51.522;6.302;2023-02-26T02:42:41;5.35;;;1.20;;
22201;SDS011;11266;51.522;6.302;2023-02-26T02:43:31;4.00;;;1.30;;
22201;SDS011;11266;51.522;6.302;2023-02-26T02:44:20;4.75;;;1.67;;
22201;SDS011;11266;51.522;6.302;2023-02-26T02:45:18;4.47;;;1.60;;
22201;SDS011;11266;51.522;6.302;2023-02-26T02:46:10;5.43;;;1.52;;
22201;SDS011;11266;51.522;6.302;2023-02-26T02:47:01;6.35;;;1.80;;
22201;SDS011;11266;51.522;6.302;2023-02-26T02:47:54;6.72;;;1.80;;
22201;SDS011;11266;51.522;6.302;2023-02-26T02:48:48;3.17;;;1.40;;
22201;SDS011;11266;51.522;6.302;2023-02-26T02:50:07;7.43;;;1.63;;
22201;SDS011;11266;51.522;6.302;2023-02-26T02:50:54;5.82;;;1.42;;
22201;SDS011;11266;51.522;6.302;2023-02-26T02:51:46;3.95;;;1.70;;
22201;SDS011;11266;51.522;6.302;2023-02-26T02:52:43;6.70;;;1.60;;
22201;SDS011;11266;51.522;6.302;2023-02-26T02:53:50;4.80;;;1.63;;
22201;SDS011;11266;51.522;6.302;2023-02-26T02:54:41;5.47;;;1.77;;
22201;SDS011;11266;51.522;6.302;2023-02-26T02:56:05;6.25;;;1.63;;
22201;SDS011;11266;51.522;6.302;2023-02-26T02:57:00;7.22;;;1.50;;
22201;SDS011;11266;51.522;6.302;2023-02-26T03:00:05;3.47;;;1.30;;
22201;SDS011;11266;51.522;6.302;2023-02-26T03:00:56;2.88;;;1.08;;
22201;SDS011;11266;51.522;6.302;2023-02-26T03:01:45;3.42;;;1.77;;
22201;SDS011;11266;51.522;6.302;2023-02-26T03:02:50;5.22;;;1.50;;
22201;SDS011;11266;51.522;6.302;2023-02-26T03:04:49;5.63;;;1.80;;
22201;SDS011;11266;51.522;6.302;2023-02-26T03:05:35;3.83;;;1.33;;
22201;SDS011;11266;51.522;6.302;2023-02-26T03:06:21;7.70;;;1.35;;
22201;SDS011;11266;51.522;6.302;2023-02-26T03:07:08;5.90;;;1.58;;
22201;SDS011;11266;51.522;6.302;2023-02-26T03:08:16;4.93;;;1.50;;
22201;SDS011;11266;51.522;6.302;2023-02-26T03:09:04;5.22;;;1.52;;
22201;SDS011;11266;51.522;6.302;2023-02-26T03:09:51;8.63;;;2.00;;
22201;SDS011;11266;51.522;6.302;2023-02-26T03:10:39;3.30;;;1.40;;
22201;SDS011;11266;51.522;6.302;2023-02-26T03:11:25;3.28;;;1.33;;
22201;SDS011;11266;51.522;6.302;2023-02-26T03:12:10;3.78;;;1.45;;
22201;SDS011;11266;51.522;6.302;2023-02-26T03:12:58;4.57;;;1.23;;
22201;SDS011;11266;51.522;6.302;2023-02-26T03:13:44;7.18;;;1.45;;
22201;SDS011;11266;51.522;6.302;2023-02-26T03:14:31;6.38;;;1.77;;
22201;SDS011;11266;51.522;6.302;2023-02-26T03:15:20;2.75;;;1.23;;
22201;SDS011;11266;51.522;6.302;2023-02-26T03:17:48;5.80;;;1.77;;
22201;SDS011;11266;51.522;6.302;2023-02-26T03:18:45;3.08;;;1.50;;
22201;SDS011;11266;51.522;6.302;2023-02-26T03:20:57;5.57;;;1.90;;
22201;SDS011;11266;51.522;6.302;2023-02-26T03:22:00;4.70;;;1.60;;
22201;SDS011;11266;51.522;6.302;2023-02-26T03:25:11;3.95;;;1.30;;
22201;SDS011;11266;51.522;6.302;2023-02-26T03:26:10;3.97;;;1.52;;
22201;SDS011;11266;51.522;6.302;2023-02-26T03:27:04;6.35;;;1.50;;
22201;SDS011;11266;51.522;6.302;2023-02-26T03:28:43;3.90;;;1.55;;
22201;SDS011;11266;51.522;6.302;2023-02-26T03:30:39;5.38;;;1.40;;
22201;SDS011;11266;51.522;6.302;2023-02-26T03:31:53;4.88;;;1.77;;
22201;SDS011;11266;51.522;6.302;2023-02-26T03:32:49;4.93;;;1.58;;
22201;SDS011;11266;51.522;6.302;2023-02-26T03:35:14;5.93;;;2.05;;
22201;SDS011;11266;51.522;6.302;2023-02-26T03:36:10;4.95;;;1.35;;
22201;SDS011;11266;51.522;6.302;2023-02-26T03:37:34;5.38;;;1.50;;
22201;SDS011;11266;51.522;6.302;2023-02-26T03:38:54;10.45;;;2.47;;
22201;SDS011;11266;51.522;6.302;2023-02-26T03:39:48;4.70;;;1.30;;
22201;SDS011;11266;51.522;6.302;2023-02-26T03:40:41;5.85;;;1.95;;
22201;SDS011;11266;51.522;6.302;2023-02-26T03:43:24;6.53;;;1.92;;
22201;SDS011;11266;51.522;6.302;2023-02-26T03:44:18;6.40;;;1.52;;
22201;SDS011;11266;51.522;6.302;2023-02-26T03:45:10;3.42;;;1.20;;
22201;SDS011;11266;51.522;6.302;2023-02-26T03:45:59;2.13;;;1.00;;
22201;SDS011;11266;51.522;6.302;2023-02-26T03:46:51;3.72;;;1.42;;
22201;SDS011;11266;51.522;6.302;2023-02-26T03:47:43;4.70;;;1.50;;
22201;SDS011;11266;51.522;6.302;2023-02-26T03:48:32;4.40;;;1.40;;
22201;SDS011;11266;51.522;6.302;2023-02-26T03:49:22;8.70;;;1.70;;
22201;SDS011;11266;51.522;6.302;2023-02-26T03:50:13;5.50;;;1.42;;
22201;SDS011;11266;51.522;6.302;2023-02-26T03:51:03;7.13;;;1.65;;
22201;SDS011;11266;51.522;6.302;2023-02-26T03:51:54;4.75;;;1.52;;
22201;SDS011;11266;51.522;6.302;2023-02-26T03:52:43;8.57;;;2.30;;
22201;SDS011;11266;51.522;6.302;2023-02-26T03:53:43;5.40;;;1.00;;
22201;SDS011;11266;51.522;6.302;2023-02-26T03:54:39;5.00;;;1.50;;
22201;SDS011;11266;51.522;6.302;2023-02-26T03:56:51;5.82;;;1.70;;
22201;SDS011;11266;51.522;6.302;2023-02-26T03:57:38;5.70;;;1.42;;
22201;SDS011;11266;51.522;6.302;2023-02-26T03:58:26;5.32;;;1.50;;
22201;SDS011;11266;51.522;6.302;2023-02-26T03:59:15;4.03;;;1.15;;
22201;SDS011;11266;51.522;6.302;2023-02-26T04:00:04;4.60;;;1.40;;
22201;SDS011;11266;51.522;6.302;2023-02-26T04:01:00;5.95;;;1.30;;
22201;SDS011;11266;51.522;6.302;2023-02-26T04:03:44;5.22;;;1.20;;
22201;SDS011;11266;51.522;6.302;2023-02-26T04:04:49;3.22;;;1.60;;
22201;SDS011;11266;51.522;6.302;2023-02-26T04:05:55;6.88;;;1.48;;
22201;SDS011;11266;51.522;6.302;2023-02-26T04:06:42;4.85;;;1.80;;
22201;SDS011;11266;51.522;6.302;2023-02-26T04:07:28;3.88;;;1.50;;
22201;SDS011;11266;51.522;6.302;2023-02-26T04:08:14;5.05;;;1.20;;
22201;SDS011;11266;51.522;6.302;2023-02-26T04:09:01;4.88;;;1.05;;
22201;SDS011;11266;51.522;6.302;2023-02-26T04:09:50;6.05;;;1.45;;
22201;SDS011;11266;51.522;6.302;2023-02-26T04:12:02;5.22;;;1.35;;
22201;SDS011;11266;51.522;6.302;2023-02-26T04:12:49;3.45;;;1.08;;
22201;SDS011;11266;51.522;6.302;2023-02-26T04:13:34;3.42;;;1.30;;
22201;SDS011;11266;51.522;6.302;2023-02-26T04:14:20;5.03;;;1.38;;
22201;SDS011;11266;51.522;6.302;2023-02-26T04:15:06;4.57;;;1.10;;
22201;SDS011;11266;51.522;6.302;2023-02-26T04:15:53;5.32;;;1.30;;
22201;SDS011;11266;51.522;6.302;2023-02-26T04:16:38;5.53;;;1.40;;
22201;SDS011;11266;51.522;6.302;2023-02-26T04:17:25;4.63;;;1.65;;
22201;SDS011;11266;51.522;6.302;2023-02-26T04:18:11;3.83;;;1.33;;
22201;SDS011;11266;51.522;6.302;2023-02-26T10:15:23;2.05;;;1.10;;
22201;SDS011;11266;51.522;6.302;2023-02-26T10:16:18;3.90;;;1.08;;
22201;SDS011;11266;51.522;6.302;2023-02-26T10:17:23;7.57;;;1.08;;
22201;SDS011;11266;51.522;6.302;2023-02-26T10:18:14;4.50;;;1.25;;
22201;SDS011;11266;51.522;6.302;2023-02-26T10:19:05;3.33;;;0.88;;
22201;SDS011;11266;51.522;6.302;2023-02-26T10:19:55;3.30;;;1.30;;
22201;SDS011;11266;51.522;6.302;2023-02-26T10:21:56;3.65;;;1.30;;
22201;SDS011;11266;51.522;6.302;2023-02-26T10:23:54;3.58;;;0.93;;
22201;SDS011;11266;51.522;6.302;2023-02-26T10:24:46;2.17;;;0.80;;
22201;SDS011;11266;51.522;6.302;2023-02-26T10:25:43;3.90;;;1.33;;
22201;SDS011;11266;51.522;6.302;2023-02-26T10:26:38;7.30;;;1.48;;
22201;SDS011;11266;51.522;6.302;2023-02-26T10:27:35;4.82;;;1.33;;
22201;SDS011;11266;51.522;6.302;2023-02-26T10:29:51;6.30;;;1.30;;
22201;SDS011;11266;51.522;6.302;2023-02-26T10:30:44;5.18;;;1.52;;
22201;SDS011;11266;51.522;6.302;2023-02-26T10:32:32;2.83;;;1.48;;
22201;SDS011;11266;51.522;6.302;2023-02-26T10:34:22;5.85;;;1.42;;
22201;SDS011;11266;51.522;6.302;2023-02-26T10:35:16;4.68;;;1.13;;
22201;SDS011;11266;51.522;6.302;2023-02-26T10:36:18;5.30;;;1.20;;
22201;SDS011;11266;51.522;6.302;2023-02-26T10:37:13;4.25;;;1.70;;
22201;SDS011;11266;51.522;6.302;2023-02-26T10:38:10;3.90;;;1.05;;
22201;SDS011;11266;51.522;6.302;2023-02-26T10:39:03;4.88;;;1.20;;
22201;SDS011;11266;51.522;6.302;2023-02-26T10:40:22;4.63;;;1.27;;
22201;SDS011;11266;51.522;6.302;2023-02-26T10:41:14;4.05;;;1.10;;
22201;SDS011;11266;51.522;6.302;2023-02-26T10:42:08;4.03;;;1.35;;
22201;SDS011;11266;51.522;6.302;2023-02-26T10:44:02;4.43;;;0.90;;
22201;SDS011;11266;51.522;6.302;2023-02-26T10:45:15;3.63;;;0.90;;
22201;SDS011;11266;51.522;6.302;2023-02-26T10:46:32;4.45;;;1.17;;
22201;SDS011;11266;51.522;6.302;2023-02-26T10:47:45;6.82;;;1.65;;
22201;SDS011;11266;51.522;6.302;2023-02-26T10:49:53;3.45;;;1.30;;
22201;SDS011;11266;51.522;6.302;2023-02-26T10:50:55;3.50;;;1.00;;
22201;SDS011;11266;51.522;6.302;2023-02-26T10:51:42;8.82;;;1.20;;
22201;SDS011;11266;51.522;6.302;2023-02-26T10:52:29;3.80;;;1.50;;
22201;SDS011;11266;51.522;6.302;2023-02-26T10:53:17;2.13;;;1.00;;
22201;SDS011;11266;51.522;6.302;2023-02-26T10:54:28;3.40;;;1.10;;
22201;SDS011;11266;51.522;6.302;2023-02-26T10:56:23;2.53;;;0.90;;
22201;SDS011;11266;51.522;6.302;2023-02-26T10:57:23;2.58;;;0.90;;
22201;SDS011;11266;51.522;6.302;2023-02-26T10:58:14;3.63;;;1.00;;
22201;SDS011;11266;51.522;6.302;2023-02-26T10:59:02;5.75;;;1.25;;
22201;SDS011;11266;51.522;6.302;2023-02-26T10:59:47;5.07;;;1.13;;
22201;SDS011;11266;51.522;6.302;2023-02-26T11:00:33;2.85;;;1.00;;
22201;SDS011;11266;51.522;6.302;2023-02-26T11:01:22;3.25;;;1.27;;
22201;SDS011;11266;51.522;6.302;2023-02-26T11:02:17;3.72;;;1.08;;
22201;SDS011;11266;51.522;6.302;2023-02-26T11:03:41;2.90;;;0.73;;
22201;SDS011;11266;51.522;6.302;2023-02-26T11:04:30;2.28;;;0.80;;
22201;SDS011;11266;51.522;6.302;2023-02-26T11:05:20;4.22;;;1.27;;
22201;SDS011;11266;51.522;6.302;2023-02-26T11:06:06;4.47;;;1.05;;
22201;SDS011;11266;51.522;6.302;2023-02-26T11:07:03;3.97;;;0.80;;
22201;SDS011;11266;51.522;6.302;2023-02-26T11:07:54;4.70;;;1.10;;
22201;SDS011;11266;51.522;6.302;2023-02-26T11:08:43;2.15;;;0.77;;
22201;SDS011;11266;51.522;6.302;2023-02-26T11:09:32;3.95;;;1.13;;
22201;SDS011;11266;51.522;6.302;2023-02-26T11:10:27;3.13;;;0.93;;
22201;SDS011;11266;51.522;6.302;2023-02-26T11:11:34;3.65;;;0.85;;
22201;SDS011;11266;51.522;6.302;2023-02-26T11:12:24;4.15;;;0.95;;
22201;SDS011;11266;51.522;6.302;2023-02-26T11:13:09;3.58;;;0.85;;
22201;SDS011;11266;51.522;6.302;2023-02-26T11:13:56;4.72;;;1.35;;
22201;SDS011;11266;51.522;6.302;2023-02-26T11:14:43;3.67;;;1.13;;
22201;SDS011;11266;51.522;6.302;2023-02-26T11:15:31;3.90;;;1.13;;
22201;SDS011;11266;51.522;6.302;2023-02-26T11:16:16;4.90;;;1.23;;
22201;SDS011;11266;51.522;6.302;2023-02-26T11:17:03;3.90;;;1.30;;
22201;SDS011;11266;51.522;6.302;2023-02-26T11:17:58;4.43;;;1.00;;
22201;SDS011;11266;51.522;6.302;2023-02-26T11:18:47;4.43;;;1.05;;
22201;SDS011;11266;51.522;6.302;2023-02-26T11:19:38;2.45;;;0.77;;
22201;SDS011;11266;51.522;6.302;2023-02-26T11:20:30;4.55;;;1.00;;
22201;SDS011;11266;51.522;6.302;2023-02-26T11:21:20;2.63;;;0.93;;
22201;SDS011;11266;51.522;6.302;2023-02-26T11:22:18;2.60;;;0.90;;
22201;SDS011;11266;51.522;6.302;2023-02-26T11:23:06;1.67;;;0.73;;
22201;SDS011;11266;51.522;6.302;2023-02-26T11:24:59;3.38;;;1.00;;
22201;SDS011;11266;51.522;6.302;2023-02-26T11:25:51;3.95;;;0.98;;
22201;SDS011;11266;51.522;6.302;2023-02-26T11:26:41;2.92;;;0.80;;
22201;SDS011;11266;51.522;6.302;2023-02-26T11:27:31;1.92;;;0.90;;
22201;SDS011;11266;51.522;6.302;2023-02-26T11:28:25;2.55;;;0.88;;
22201;SDS011;11266;51.522;6.302;2023-02-26T11:29:17;3.80;;;1.00;;
22201;SDS011;11266;51.522;6.302;2023-02-26T11:30:37;3.28;;;0.90;;
22201;SDS011;11266;51.522;6.302;2023-02-26T11:31:20;1.42;;;0.70;;
22201;SDS011;11266;51.522;6.302;2023-02-26T11:32:21;4.13;;;1.17;;
22201;SDS011;11266;51.522;6.302;2023-02-26T11:33:16;2.53;;;1.00;;
22201;SDS011;11266;51.522;6.302;2023-02-26T11:34:07;2.35;;;1.15;;
22201;SDS011;11266;51.522;6.302;2023-02-26T11:34:55;4.38;;;1.10;;
22201;SDS011;11266;51.522;6.302;2023-02-26T11:35:41;4.35;;;1.23;;
22201;SDS011;11266;51.522;6.302;2023-02-26T11:36:28;2.75;;;0.85;;
22201;SDS011;11266;51.522;6.302;2023-02-26T11:37:20;2.80;;;1.00;;
22201;SDS011;11266;51.522;6.302;2023-02-26T11:38:19;4.85;;;0.90;;
22201;SDS011;11266;51.522;6.302;2023-02-26T11:39:09;2.20;;;0.70;;
22201;SDS011;11266;51.522;6.302;2023-02-26T11:40:12;2.83;;;1.08;;
22201;SDS011;11266;51.522;6.302;2023-02-26T11:40:58;2.58;;;0.70;;
22201;SDS011;11266;51.522;6.302;2023-02-26T11:41:47;1.38;;;0.70;;
22201;SDS011;11266;51.522;6.302;2023-02-26T11:42:34;3.85;;;1.05;;
22201;SDS011;11266;51.522;6.302;2023-02-26T11:43:32;2.28;;;0.73;;
22201;SDS011;11266;51.522;6.302;2023-02-26T11:44:40;4.63;;;0.80;;
22201;SDS011;11266;51.522;6.302;2023-02-26T11:45:29;5.40;;;1.10;;
22201;SDS011;11266;51.522;6.302;2023-02-26T11:46:15;3.72;;;1.10;;
22201;SDS011;11266;51.522;6.302;2023-02-26T11:47:02;1.88;;;0.80;;
22201;SDS011;11266;51.522;6.302;2023-02-26T11:48:05;1.92;;;0.90;;
22201;SDS011;11266;51.522;6.302;2023-02-26T11:48:57;3.03;;;0.88;;
22201;SDS011;11266;51.522;6.302;2023-02-26T11:49:49;2.80;;;0.80;;
22201;SDS011;11266;51.522;6.302;2023-02-26T11:50:39;2.38;;;0.75;;
22201;SDS011;11266;51.522;6.302;2023-02-26T11:51:28;1.17;;;0.68;;
22201;SDS011;11266;51.522;6.302;2023-02-26T11:52:27;3.25;;;0.90;;
22201;SDS011;11266;51.522;6.302;2023-02-26T11:53:23;1.63;;;0.68;;
22201;SDS011;11266;51.522;6.302;2023-02-26T11:54:19;2.88;;;0.82;;
22201;SDS011;11266;51.522;6.302;2023-02-26T11:55:17;4.43;;;1.35;;
22201;SDS011;11266;51.522;6.302;2023-02-26T11:56:13;5.93;;;1.00;;
22201;SDS011;11266;51.522;6.302;2023-02-26T11:57:14;4.32;;;0.90;;
22201;SDS011;11266;51.522;6.302;2023-02-26T11:58:03;1.75;;;0.90;;
22201;SDS011;11266;51.522;6.302;2023-02-26T11:59:01;2.67;;;0.75;;
22201;SDS011;11266;51.522;6.302;2023-02-26T11:59:53;4.72;;;1.00;;
22201;SDS011;11266;51.522;6.302;2023-02-26T12:00:39;3.33;;;1.40;;
22201;SDS011;11266;51.522;6.302;2023-02-26T12:01:26;5.90;;;1.40;;
22201;SDS011;11266;51.522;6.302;2023-02-26T12:02:13;3.38;;;1.10;;
22201;SDS011;11266;51.522;6.302;2023-02-26T12:03:04;4.13;;;1.52;;
22201;SDS011;11266;51.522;6.302;2023-02-26T12:03:52;4.93;;;1.20;;
22201;SDS011;11266;51.522;6.302;2023-02-26T12:04:44;6.00;;;1.58;;
22201;SDS011;11266;51.522;6.302;2023-02-26T12:05:33;2.50;;;1.08;;
22201;SDS011;11266;51.522;6.302;2023-02-26T12:06:22;3.03;;;1.05;;
22201;SDS011;11266;51.522;6.302;2023-02-26T12:07:10;3.05;;;1.00;;
22201;SDS011;11266;51.522;6.302;2023-02-26T12:07:58;9.68;;;1.50;;
22201;SDS011;11266;51.522;6.302;2023-02-26T12:09:00;4.13;;;1.60;;
22201;SDS011;11266;51.522;6.302;2023-02-26T12:09:46;4.53;;;1.60;;
22201;SDS011;11266;51.522;6.302;2023-02-26T12:10:38;4.15;;;1.55;;
22201;SDS011;11266;51.522;6.302;2023-02-26T12:14:25;4.10;;;1.02;;
22201;SDS011;11266;51.522;6.302;2023-02-26T12:15:38;2.72;;;1.30;;
22201;SDS011;11266;51.522;6.302;2023-02-26T12:16:35;2.17;;;1.02;;
22201;SDS011;11266;51.522;6.302;2023-02-26T12:17:33;4.47;;;0.98;;
22201;SDS011;11266;51.522;6.302;2023-02-26T12:21:14;1.50;;;0.73;;
22201;SDS011;11266;51.522;6.302;2023-02-26T12:22:55;4.60;;;0.93;;
22201;SDS011;11266;51.522;6.302;2023-02-26T12:24:17;3.55;;;0.73;;